createdAt,value
2019-02-18T00:00:44.758Z,4.85
2019-02-18T00:03:14.337Z,4.80
2019-02-18T00:05:43.769Z,4.72
2019-02-18T00:08:13.216Z,4.62
2019-02-18T00:10:42.622Z,4.58
2019-02-18T00:13:12.054Z,4.52
2019-02-18T00:15:41.510Z,4.48
2019-02-18T00:18:10.954Z,4.44
2019-02-18T00:20:40.358Z,4.41
2019-02-18T00:23:09.817Z,4.39
2019-02-18T00:25:39.345Z,4.40
2019-02-18T00:28:08.802Z,4.44
2019-02-18T00:33:13.341Z,4.44
2019-02-18T00:35:54.145Z,4.44
2019-02-18T00:41:18.132Z,4.29
2019-02-18T00:43:47.635Z,4.29
2019-02-18T00:46:17.156Z,4.18
2019-02-18T00:49:07.074Z,4.07
2019-02-18T00:57:06.450Z,3.91
2019-02-18T00:59:35.855Z,3.93
2019-02-18T01:02:05.381Z,3.92
2019-02-18T01:04:35.043Z,3.93
2019-02-18T01:07:04.442Z,3.95
2019-02-18T01:09:33.838Z,3.98
2019-02-18T01:14:38.642Z,4.07
2019-02-18T01:17:08.309Z,4.07
2019-02-18T01:19:37.766Z,4.08
2019-02-18T01:22:07.300Z,4.11
2019-02-18T01:24:55.875Z,4.18
2019-02-18T01:30:16.525Z,4.22
2019-02-18T01:32:46.017Z,4.22
2019-02-18T01:35:54.900Z,4.22
2019-02-18T01:38:24.425Z,4.20
2019-02-18T01:40:54.069Z,4.15
2019-02-18T01:43:23.781Z,4.17
2019-02-18T01:45:53.332Z,4.17
2019-02-18T01:48:41.804Z,4.26
2019-02-18T01:56:45.429Z,4.36
2019-02-18T01:59:26.601Z,4.37
2019-02-18T02:01:56.766Z,4.32
2019-02-18T02:04:26.202Z,4.38
2019-02-18T02:06:55.831Z,4.38
2019-02-18T02:09:25.540Z,4.38
2019-02-18T02:11:57.318Z,4.36
2019-02-18T02:14:26.725Z,4.42
2019-02-18T02:16:56.704Z,4.35
2019-02-18T02:19:26.106Z,4.47
2019-02-18T02:21:55.710Z,4.52
2019-02-18T02:24:28.408Z,4.52
2019-02-18T02:26:57.838Z,4.55
2019-02-18T02:29:27.267Z,4.53
2019-02-18T02:31:56.719Z,4.54
2019-02-18T02:34:26.391Z,4.54
2019-02-18T02:39:44.203Z,4.59
2019-02-18T02:42:13.660Z,4.63
2019-02-18T02:44:43.051Z,4.64
2019-02-18T02:47:35.034Z,4.65
2019-02-18T02:53:18.298Z,4.72
2019-02-18T02:55:59.671Z,4.72
2019-02-18T02:58:29.278Z,4.71
2019-02-18T03:00:58.871Z,4.71
2019-02-18T03:03:28.390Z,4.75
2019-02-18T03:05:57.908Z,4.83
2019-02-18T03:11:16.011Z,4.92
2019-02-18T03:13:45.449Z,4.97
2019-02-18T03:16:14.834Z,5.01
2019-02-18T03:18:44.488Z,5.04
2019-02-18T03:21:13.885Z,5.05
2019-02-18T03:23:43.270Z,5.05
2019-02-18T03:26:12.736Z,5.02
2019-02-18T03:29:20.231Z,5.04
2019-02-18T03:31:49.677Z,5.06
2019-02-18T03:34:42.247Z,5.07
2019-02-18T03:37:11.840Z,5.08
2019-02-18T03:39:41.246Z,4.99
2019-02-18T03:42:10.760Z,5.04
2019-02-18T03:44:40.179Z,5.01
2019-02-18T03:47:09.833Z,4.99
2019-02-18T03:49:39.312Z,4.98
2019-02-18T03:52:08.795Z,5.01
2019-02-18T03:57:38.452Z,5.08
2019-02-18T04:00:08.577Z,5.14
2019-02-18T04:03:06.555Z,5.16
2019-02-18T04:05:36.013Z,5.21
2019-02-18T04:08:05.433Z,5.31
2019-02-18T04:10:54.172Z,5.35
2019-02-18T04:13:23.628Z,5.38
2019-02-18T04:15:55.828Z,5.38
2019-02-18T04:18:25.422Z,5.45
2019-02-18T04:20:56.525Z,5.48
2019-02-18T04:23:25.929Z,5.50
2019-02-18T04:25:55.524Z,5.49
2019-02-18T04:28:44.004Z,5.52
2019-02-18T04:31:14.041Z,5.58
2019-02-18T04:33:43.504Z,5.62
2019-02-18T04:36:19.760Z,5.69
2019-02-18T04:38:54.086Z,5.73
2019-02-18T04:43:55.736Z,5.77
2019-02-18T04:49:02.661Z,5.76
2019-02-18T04:51:32.205Z,5.77
2019-02-18T04:54:01.635Z,5.76
2019-02-18T04:56:31.107Z,5.78
2019-02-18T04:59:12.022Z,5.77
2019-02-18T05:01:42.084Z,5.79
2019-02-18T05:04:14.089Z,5.80
2019-02-18T05:09:29.981Z,5.87
2019-02-18T05:11:59.443Z,5.91
2019-02-18T05:14:29.131Z,5.94
2019-02-18T05:16:58.549Z,5.98
2019-02-18T05:19:27.994Z,6.02
2019-02-18T05:22:14.479Z,6.03
2019-02-18T05:24:43.944Z,6.07
2019-02-18T05:27:13.361Z,6.09
2019-02-18T05:29:42.739Z,6.11
2019-02-18T05:32:12.232Z,6.15
2019-02-18T05:34:41.611Z,6.13
2019-02-18T05:37:14.804Z,6.10
2019-02-18T05:39:44.280Z,6.11
2019-02-18T05:42:13.739Z,6.07
2019-02-18T05:44:43.192Z,6.05
2019-02-18T05:47:12.832Z,6.05
2019-02-18T05:49:42.305Z,6.07
2019-02-18T05:52:14.702Z,6.10
2019-02-18T05:54:44.186Z,6.12
2019-02-18T05:57:13.622Z,6.11
2019-02-18T06:00:03.385Z,6.08
2019-02-18T06:02:45.380Z,6.12
2019-02-18T06:05:14.894Z,6.13
2019-02-18T06:07:44.277Z,6.13
2019-02-18T06:13:03.757Z,6.13
2019-02-18T06:15:33.287Z,6.11
2019-02-18T06:18:02.700Z,6.11
2019-02-18T06:20:32.301Z,6.12
2019-02-18T06:23:01.720Z,6.10
2019-02-18T06:25:31.118Z,6.05
2019-02-18T06:28:00.556Z,6.03
2019-02-18T06:30:29.974Z,6.04
2019-02-18T06:33:01.143Z,6.03
2019-02-18T06:35:30.792Z,6.03
2019-02-18T06:38:00.279Z,6.03
2019-02-18T06:40:29.736Z,6.04
2019-02-18T06:42:59.156Z,6.03
2019-02-18T06:51:14.024Z,6.10
2019-02-18T06:53:57.655Z,6.15
2019-02-18T06:56:47.005Z,6.20
2019-02-18T07:02:17.735Z,6.31
2019-02-18T07:05:06.046Z,6.33
2019-02-18T07:11:00.095Z,6.43
2019-02-18T07:19:03.949Z,6.50
2019-02-18T07:21:54.154Z,6.56
2019-02-18T07:24:23.881Z,6.60
2019-02-18T07:26:53.469Z,6.64
2019-02-18T07:32:13.424Z,6.72
2019-02-18T07:34:42.823Z,6.79
2019-02-18T07:37:12.333Z,6.85
2019-02-18T07:42:16.528Z,6.98
2019-02-18T07:47:31.434Z,7.13
2019-02-18T07:50:20.236Z,7.21
2019-02-18T07:55:22.662Z,7.35
2019-02-18T08:00:37.549Z,7.47
2019-02-18T08:03:07.677Z,7.48
2019-02-18T08:05:37.076Z,7.54
2019-02-18T08:08:06.527Z,7.55
2019-02-18T08:10:35.955Z,7.57
2019-02-18T08:13:05.440Z,7.60
2019-02-18T08:15:35.055Z,7.63
2019-02-18T08:18:04.452Z,7.66
2019-02-18T08:20:33.860Z,7.69
2019-02-18T08:23:03.713Z,7.69
2019-02-18T08:25:33.132Z,7.74
2019-02-18T08:28:02.612Z,7.79
2019-02-18T08:30:32.089Z,7.78
2019-02-18T08:33:01.490Z,7.80
2019-02-18T08:35:30.875Z,7.82
2019-02-18T08:38:00.474Z,7.85
2019-02-18T08:46:06.803Z,7.89
2019-02-18T08:48:36.458Z,7.93
2019-02-18T08:51:07.962Z,7.94
2019-02-18T08:53:37.407Z,7.97
2019-02-18T08:56:10.441Z,8.02
2019-02-18T08:58:39.900Z,8.06
2019-02-18T09:01:09.750Z,8.10
2019-02-18T09:06:28.077Z,8.16
2019-02-18T09:08:57.601Z,8.22
2019-02-18T09:11:27.053Z,8.29
2019-02-18T09:13:56.462Z,8.35
2019-02-18T09:16:25.885Z,8.36
2019-02-18T09:18:55.368Z,8.41
2019-02-18T09:24:06.533Z,8.51
2019-02-18T09:26:36.217Z,8.51
2019-02-18T09:29:05.730Z,8.56
2019-02-18T09:34:12.187Z,8.66
2019-02-18T09:36:41.745Z,8.73
2019-02-18T09:42:01.443Z,8.75
2019-02-18T09:44:30.905Z,8.75
2019-02-18T09:47:00.373Z,8.79
2019-02-18T09:49:29.929Z,8.81
2019-02-18T09:52:00.912Z,8.84
2019-02-18T09:54:30.468Z,8.88
2019-02-18T09:56:59.872Z,8.93
2019-02-18T09:59:29.293Z,8.99
2019-02-18T10:02:11.111Z,9.01
2019-02-18T10:04:29.989Z,9.09
2019-02-18T10:06:59.444Z,9.16
2019-02-18T10:09:28.873Z,9.26
2019-02-18T10:11:58.314Z,9.37
2019-02-18T10:14:27.834Z,9.45
2019-02-18T10:16:57.329Z,9.50
2019-02-18T10:19:26.835Z,9.56
2019-02-18T10:21:56.358Z,9.61
2019-02-18T10:24:25.864Z,9.65
2019-02-18T10:26:55.433Z,9.71
2019-02-18T10:29:26.590Z,9.81
2019-02-18T10:31:56.025Z,9.83
2019-02-18T10:34:25.430Z,9.87
2019-02-18T10:36:56.526Z,9.90
2019-02-18T10:39:26.003Z,9.93
2019-02-18T10:44:44.011Z,10.02
2019-02-18T10:47:13.499Z,10.12
2019-02-18T10:49:42.964Z,10.17
2019-02-18T10:52:13.126Z,10.25
2019-02-18T10:57:31.043Z,10.44
2019-02-18T11:00:00.486Z,10.53
2019-02-18T11:02:29.888Z,10.61
2019-02-18T11:07:33.850Z,10.68
2019-02-18T11:10:03.445Z,10.71
2019-02-18T11:12:32.875Z,10.75
2019-02-18T11:15:02.349Z,10.81
2019-02-18T11:17:38.660Z,10.83
2019-02-18T11:20:03.271Z,10.87
2019-02-18T11:22:32.787Z,10.89
2019-02-18T11:25:02.283Z,10.94
2019-02-18T11:27:31.721Z,10.96
2019-02-18T11:30:01.184Z,11.00
2019-02-18T11:32:30.626Z,11.07
2019-02-18T11:35:00.749Z,11.16
2019-02-18T11:37:31.351Z,11.21
2019-02-18T11:40:01.097Z,11.28
2019-02-18T11:42:30.542Z,11.29
2019-02-18T11:45:00.294Z,11.33
2019-02-18T11:47:31.407Z,11.31
2019-02-18T11:50:01.031Z,11.33
2019-02-18T11:52:30.970Z,11.31
2019-02-18T11:55:00.418Z,11.29
2019-02-18T11:57:31.653Z,11.30
2019-02-18T12:00:01.017Z,11.33
2019-02-18T12:02:30.757Z,11.34
2019-02-18T12:05:00.302Z,11.35
2019-02-18T12:07:29.669Z,11.37
2019-02-18T12:09:59.135Z,11.38
2019-02-18T12:12:28.598Z,11.45
2019-02-18T12:14:58.376Z,11.46
2019-02-18T12:17:27.846Z,11.48
2019-02-18T12:19:57.287Z,11.51
2019-02-18T12:22:47.066Z,11.54
2019-02-18T12:28:05.278Z,11.62
2019-02-18T12:30:34.710Z,11.69
2019-02-18T12:33:04.159Z,11.73
2019-02-18T12:35:35.131Z,11.78
2019-02-18T12:38:17.478Z,11.77
2019-02-18T12:40:47.109Z,11.79
2019-02-18T12:43:16.630Z,11.81
2019-02-18T12:46:15.291Z,11.83
2019-02-18T12:48:36.193Z,11.86
2019-02-18T12:54:04.548Z,11.93
2019-02-18T12:56:25.613Z,11.93
2019-02-18T12:58:55.574Z,11.98
2019-02-18T13:02:29.026Z,12.02
2019-02-18T13:04:13.619Z,12.06
2019-02-18T13:06:43.047Z,12.08
2019-02-18T13:09:12.843Z,12.13
2019-02-18T13:11:44.446Z,12.17
2019-02-18T13:14:13.871Z,12.18
2019-02-18T13:16:43.368Z,12.21
2019-02-18T13:19:14.051Z,12.20
2019-02-18T13:21:45.145Z,12.22
2019-02-18T13:24:14.823Z,12.21
2019-02-18T13:26:44.357Z,12.20
2019-02-18T13:29:13.888Z,12.18
2019-02-18T13:31:43.320Z,12.17
2019-02-18T13:34:12.818Z,12.19
2019-02-18T13:39:17.519Z,12.17
2019-02-18T13:41:58.519Z,12.17
2019-02-18T13:47:21.464Z,12.14
2019-02-18T13:49:51.299Z,12.12
2019-02-18T13:52:39.854Z,12.17
2019-02-18T13:55:21.119Z,12.19
2019-02-18T13:57:57.773Z,12.22
2019-02-18T14:05:59.490Z,12.16
2019-02-18T14:11:28.882Z,12.16
2019-02-18T14:13:58.589Z,12.14
2019-02-18T14:21:52.005Z,12.02
2019-02-18T14:26:58.406Z,11.98
2019-02-18T14:29:27.959Z,11.98
2019-02-18T14:31:57.390Z,11.99
2019-02-18T14:34:45.968Z,11.95
2019-02-18T14:37:15.421Z,11.93
2019-02-18T14:39:47.936Z,11.90
2019-02-18T14:42:24.312Z,11.87
2019-02-18T14:44:48.966Z,11.82
2019-02-18T14:47:18.624Z,11.73
2019-02-18T14:49:48.264Z,11.69
2019-02-18T14:55:43.134Z,11.59
2019-02-18T14:58:12.977Z,11.55
2019-02-18T15:00:42.343Z,11.53
2019-02-18T15:03:11.956Z,11.55
2019-02-18T15:11:05.343Z,11.61
2019-02-18T15:13:34.756Z,11.58
2019-02-18T15:16:04.276Z,11.54
2019-02-18T15:18:33.677Z,11.51
2019-02-18T15:21:03.172Z,11.42
2019-02-18T15:26:35.553Z,11.20
2019-02-18T15:29:07.356Z,11.13
2019-02-18T15:34:39.018Z,10.92
2019-02-18T15:37:08.543Z,10.79
2019-02-18T15:39:37.971Z,10.70
2019-02-18T15:42:09.266Z,10.65
2019-02-18T15:44:38.926Z,10.62
2019-02-18T15:47:22.983Z,10.65
2019-02-18T15:49:39.546Z,10.63
2019-02-18T15:55:04.630Z,10.67
2019-02-18T15:57:45.902Z,10.64
2019-02-18T16:00:18.047Z,10.58
2019-02-18T16:02:48.179Z,10.57
2019-02-18T16:08:06.092Z,10.53
2019-02-18T16:10:35.569Z,10.51
2019-02-18T16:13:05.231Z,10.51
2019-02-18T16:15:34.942Z,10.50
2019-02-18T16:18:04.602Z,10.49
2019-02-18T16:20:34.211Z,10.48
2019-02-18T16:23:03.764Z,10.45
2019-02-18T16:25:33.159Z,10.41
2019-02-18T16:28:02.569Z,10.35
2019-02-18T16:30:32.079Z,10.30
2019-02-18T16:35:56.971Z,10.12
2019-02-18T16:38:26.427Z,9.97
2019-02-18T16:40:58.178Z,9.86
2019-02-18T16:43:29.322Z,9.76
2019-02-18T16:46:17.673Z,9.70
2019-02-18T16:48:47.906Z,9.62
2019-02-18T16:51:17.337Z,9.55
2019-02-18T16:53:50.849Z,9.49
2019-02-18T16:56:21.317Z,9.44
2019-02-18T16:58:53.127Z,9.38
2019-02-18T17:06:46.743Z,9.20
2019-02-18T17:11:57.596Z,9.08
2019-02-18T17:14:38.186Z,9.01
2019-02-18T17:17:07.771Z,8.97
2019-02-18T17:19:37.181Z,8.90
2019-02-18T17:22:06.573Z,8.87
2019-02-18T17:24:36.170Z,8.81
2019-02-18T17:27:05.599Z,8.78
2019-02-18T17:29:35.077Z,8.73
2019-02-18T17:32:04.604Z,8.70
2019-02-18T17:34:34.046Z,8.65
2019-02-18T17:37:03.618Z,8.64
2019-02-18T17:39:33.176Z,8.59
2019-02-18T17:42:02.604Z,8.55
2019-02-18T17:44:32.095Z,8.51
2019-02-18T17:47:01.634Z,8.48
2019-02-18T17:49:31.037Z,8.46
2019-02-18T17:52:01.012Z,8.42
2019-02-18T17:57:07.044Z,8.36
2019-02-18T17:59:39.678Z,8.33
2019-02-18T18:02:09.143Z,8.30
2019-02-18T18:04:38.660Z,8.29
2019-02-18T18:07:09.160Z,8.29
2019-02-18T18:12:38.760Z,8.26
2019-02-18T18:15:09.015Z,8.25
2019-02-18T18:17:38.442Z,8.23
2019-02-18T18:20:08.462Z,8.20
2019-02-18T18:25:26.406Z,8.15
2019-02-18T18:27:58.100Z,8.08
2019-02-18T18:30:27.525Z,8.05
2019-02-18T18:32:56.940Z,7.98
2019-02-18T18:35:26.352Z,7.96
2019-02-18T18:37:57.651Z,7.90
2019-02-18T18:40:27.098Z,7.87
2019-02-18T18:42:56.518Z,7.83
2019-02-18T18:45:26.061Z,7.80
2019-02-18T18:47:57.529Z,7.78
2019-02-18T18:50:27.236Z,7.75
2019-02-18T18:52:56.768Z,7.70
2019-02-18T18:58:01.534Z,7.65
2019-02-18T19:03:16.617Z,7.59
2019-02-18T19:05:46.035Z,7.54
2019-02-18T19:08:15.460Z,7.53
2019-02-18T19:13:20.198Z,7.48
2019-02-18T19:15:49.994Z,7.44
2019-02-18T19:23:42.914Z,7.45
2019-02-18T19:26:12.583Z,7.46
2019-02-18T19:28:42.010Z,7.45
2019-02-18T19:31:11.471Z,7.46
2019-02-18T19:33:40.960Z,7.43
2019-02-18T19:36:10.455Z,7.42
2019-02-18T19:38:39.870Z,7.40
2019-02-18T19:41:09.491Z,7.35
2019-02-18T19:43:51.092Z,7.30
2019-02-18T19:46:22.170Z,7.28
2019-02-18T19:48:52.086Z,7.26
2019-02-18T19:51:23.226Z,7.23
2019-02-18T19:53:54.862Z,7.23
2019-02-18T19:56:24.563Z,7.22
2019-02-18T19:58:55.686Z,7.22
2019-02-18T20:01:25.807Z,7.22
2019-02-18T20:03:55.391Z,7.25
2019-02-18T20:07:04.452Z,7.24
2019-02-18T20:12:47.170Z,7.27
2019-02-18T20:18:00.418Z,7.32
2019-02-18T20:20:29.958Z,7.32
2019-02-18T20:23:01.406Z,7.35
2019-02-18T20:25:30.634Z,7.30
2019-02-18T20:28:00.142Z,7.26
2019-02-18T20:30:29.543Z,7.22
2019-02-18T20:32:59.083Z,7.19
2019-02-18T20:35:28.562Z,7.13
2019-02-18T20:37:58.036Z,7.09
2019-02-18T20:43:06.118Z,7.08
2019-02-18T20:50:55.739Z,6.96
2019-02-18T20:53:44.717Z,6.93
2019-02-18T20:56:33.064Z,6.87
2019-02-18T20:59:02.585Z,6.83
2019-02-18T21:01:31.985Z,6.84
2019-02-18T21:06:49.928Z,6.93
2019-02-18T21:09:19.345Z,7.03
2019-02-18T21:14:37.372Z,7.20
2019-02-18T21:17:27.553Z,7.29
2019-02-18T21:22:31.680Z,7.41
2019-02-18T21:27:36.046Z,7.50
2019-02-18T21:30:05.778Z,7.52
2019-02-18T21:32:35.158Z,7.53
2019-02-18T21:37:40.062Z,7.52
2019-02-18T21:40:12.733Z,7.50
2019-02-18T21:42:42.239Z,7.46
2019-02-18T21:45:11.772Z,7.46
2019-02-18T21:50:27.993Z,7.44
2019-02-18T21:52:57.636Z,7.44
2019-02-18T21:55:27.078Z,7.44
2019-02-18T21:57:56.549Z,7.44
2019-02-18T22:00:26.046Z,7.46
2019-02-18T22:05:50.967Z,7.47
2019-02-18T22:08:20.378Z,7.48
2019-02-18T22:10:49.995Z,7.45
2019-02-18T22:13:19.950Z,7.43
2019-02-18T22:15:49.463Z,7.42
2019-02-18T22:18:18.906Z,7.40
2019-02-18T22:20:50.123Z,7.39
2019-02-18T22:23:38.448Z,7.35
2019-02-18T22:26:07.888Z,7.38
2019-02-18T22:28:37.305Z,7.34
2019-02-18T22:31:06.800Z,7.33
2019-02-18T22:33:36.210Z,7.31
2019-02-18T22:36:05.608Z,7.33
2019-02-18T22:38:35.000Z,7.33
2019-02-18T22:41:06.205Z,7.35
2019-02-18T22:43:35.787Z,7.36
2019-02-18T22:46:05.193Z,7.41
2019-02-18T22:48:34.707Z,7.45
2019-02-18T22:51:15.863Z,7.50
2019-02-18T22:53:45.678Z,7.56
2019-02-18T22:56:21.437Z,7.61
2019-02-18T22:58:51.005Z,7.65
2019-02-18T23:01:22.274Z,7.68
2019-02-18T23:03:51.785Z,7.71
2019-02-18T23:06:23.285Z,7.74
2019-02-18T23:08:52.825Z,7.76
2019-02-18T23:11:22.760Z,7.77
2019-02-18T23:16:26.597Z,7.77
2019-02-18T23:18:56.066Z,7.77
2019-02-18T23:21:25.659Z,7.76
2019-02-18T23:23:55.391Z,7.77
2019-02-18T23:26:26.896Z,7.76
2019-02-18T23:28:56.402Z,7.76
2019-02-18T23:31:25.798Z,7.73
2019-02-18T23:34:18.425Z,7.71
2019-02-18T23:39:44.468Z,7.69
2019-02-18T23:42:13.921Z,7.67
2019-02-18T23:44:43.343Z,7.65
2019-02-18T23:47:12.782Z,7.64
2019-02-18T23:49:42.398Z,7.64
2019-02-18T23:52:12.160Z,7.61
2019-02-18T23:54:41.804Z,7.61
2019-02-18T23:57:11.484Z,7.64
2019-02-18T23:59:40.871Z,7.66
